createdAt,value
2018-01-25T00:00:04.537Z,100471.25
2018-01-25T00:02:32.914Z,100471.23
2018-01-25T00:05:01.320Z,100470.67
2018-01-25T00:07:29.683Z,100462.03
2018-01-25T00:09:58.031Z,100466.63
2018-01-25T00:12:26.450Z,100464.83
2018-01-25T00:14:54.800Z,100464.70
2018-01-25T00:17:23.469Z,100461.17
2018-01-25T00:19:51.985Z,100470.73
2018-01-25T00:22:20.382Z,100460.21
2018-01-25T00:24:48.756Z,100468.98
2018-01-25T00:27:17.136Z,100468.91
2018-01-25T00:29:45.484Z,100476.91
2018-01-25T00:32:14.343Z,100472.84
2018-01-25T00:34:43.095Z,100469.44
2018-01-25T00:37:11.443Z,100478.54
2018-01-25T00:39:39.801Z,100469.09
2018-01-25T00:42:08.556Z,100465.47
2018-01-25T00:44:36.904Z,100458.09
2018-01-25T00:47:05.263Z,100464.05
2018-01-25T00:49:33.624Z,100463.74
2018-01-25T00:52:02.484Z,100465.08
2018-01-25T00:54:30.836Z,100462.62
2018-01-25T00:56:59.240Z,100470.77
2018-01-25T00:59:27.600Z,100472.39
2018-01-25T01:01:55.963Z,100476.86
2018-01-25T01:04:24.333Z,100478.31
2018-01-25T01:06:52.740Z,100476.18
2018-01-25T01:09:21.101Z,100473.43
2018-01-25T01:11:49.507Z,100482.33
2018-01-25T01:14:17.975Z,100479.91
2018-01-25T01:16:46.316Z,100473.76
2018-01-25T01:19:14.679Z,100472.56
2018-01-25T01:21:43.516Z,100465.32
2018-01-25T01:24:11.892Z,100468.52
2018-01-25T01:26:40.272Z,100474.89
2018-01-25T01:29:08.648Z,100475.25
2018-01-25T01:31:37.031Z,100471.72
2018-01-25T01:34:05.407Z,100467.00
2018-01-25T01:36:33.891Z,100477.84
2018-01-25T01:39:02.279Z,100462.80
2018-01-25T01:41:30.668Z,100459.25
2018-01-25T01:43:59.040Z,100460.84
2018-01-25T01:46:27.392Z,100467.66
2018-01-25T01:48:55.785Z,100464.78
2018-01-25T01:51:24.207Z,100463.80
2018-01-25T01:53:53.052Z,100461.48
2018-01-25T01:56:21.411Z,100470.26
2018-01-25T01:58:49.763Z,100472.07
2018-01-25T02:01:18.600Z,100464.93
2018-01-25T02:03:46.980Z,100464.80
2018-01-25T02:06:15.353Z,100471.12
2018-01-25T02:08:43.735Z,100464.55
2018-01-25T02:11:12.093Z,100471.09
2018-01-25T02:13:40.483Z,100480.13
2018-01-25T02:16:08.841Z,100479.38
2018-01-25T02:18:37.197Z,100480.19
2018-01-25T02:21:06.038Z,100466.72
2018-01-25T02:23:34.417Z,100463.55
2018-01-25T02:26:02.886Z,100464.63
2018-01-25T02:28:31.248Z,100465.96
2018-01-25T02:30:59.601Z,100455.30
2018-01-25T02:33:28.364Z,100449.52
2018-01-25T02:35:56.827Z,100456.34
2018-01-25T02:38:25.212Z,100460.94
2018-01-25T02:40:53.582Z,100461.22
2018-01-25T02:43:21.931Z,100459.89
2018-01-25T02:45:50.291Z,100463.45
2018-01-25T02:48:19.139Z,100452.11
2018-01-25T02:50:47.519Z,100453.77
2018-01-25T02:53:15.884Z,100452.08
2018-01-25T02:55:44.244Z,100458.07
2018-01-25T02:58:12.643Z,100453.98
2018-01-25T03:00:40.995Z,100453.55
2018-01-25T03:03:09.370Z,100444.24
2018-01-25T03:05:37.749Z,100448.23
2018-01-25T03:08:06.165Z,100444.04
2018-01-25T03:10:34.535Z,100450.09
2018-01-25T03:13:02.916Z,100446.71
2018-01-25T03:15:31.288Z,100447.27
2018-01-25T03:17:59.872Z,100450.48
2018-01-25T03:20:28.243Z,100447.48
2018-01-25T03:22:56.611Z,100446.98
2018-01-25T03:25:25.012Z,100450.05
2018-01-25T03:27:53.481Z,100444.68
2018-01-25T03:30:21.846Z,100439.46
2018-01-25T03:32:50.218Z,100447.80
2018-01-25T03:35:18.577Z,100444.52
2018-01-25T03:37:47.328Z,100449.64
2018-01-25T03:40:15.700Z,100461.45
2018-01-25T03:42:44.063Z,100462.14
2018-01-25T03:45:12.773Z,100457.91
2018-01-25T03:47:41.128Z,100436.87
2018-01-25T03:50:09.519Z,100439.84
2018-01-25T03:52:37.912Z,100442.00
2018-01-25T03:55:06.272Z,100448.27
2018-01-25T03:57:34.660Z,100453.23
2018-01-25T04:00:03.134Z,100443.30
2018-01-25T04:02:31.485Z,100447.61
2018-01-25T04:04:59.836Z,100447.70
2018-01-25T04:07:28.594Z,100436.39
2018-01-25T04:09:56.951Z,100441.33
2018-01-25T04:12:25.319Z,100439.90
2018-01-25T04:14:53.719Z,100445.36
2018-01-25T04:17:22.067Z,100445.15
2018-01-25T04:19:50.472Z,100448.29
2018-01-25T04:22:18.819Z,100450.12
2018-01-25T04:24:47.192Z,100453.47
2018-01-25T04:27:15.554Z,100457.63
2018-01-25T04:29:44.308Z,100452.14
2018-01-25T04:32:12.769Z,100452.86
2018-01-25T04:34:41.159Z,100458.41
2018-01-25T04:37:09.544Z,100454.41
2018-01-25T04:39:38.012Z,100450.08
2018-01-25T04:42:06.365Z,100453.61
2018-01-25T04:44:34.863Z,100459.12
2018-01-25T04:47:03.216Z,100470.43
2018-01-25T04:49:31.587Z,100462.34
2018-01-25T04:51:59.945Z,100464.91
2018-01-25T04:54:28.300Z,100459.22
2018-01-25T04:56:56.804Z,100462.70
2018-01-25T04:59:25.556Z,100458.70
2018-01-25T05:01:53.932Z,100466.38
2018-01-25T05:04:22.274Z,100462.84
2018-01-25T05:06:50.627Z,100462.43
2018-01-25T05:09:19.072Z,100456.05
2018-01-25T05:11:47.427Z,100464.03
2018-01-25T05:14:15.807Z,100458.91
2018-01-25T05:16:45.948Z,100460.64
2018-01-25T05:19:14.328Z,100463.92
2018-01-25T05:21:42.696Z,100464.16
2018-01-25T05:24:11.057Z,100467.50
2018-01-25T05:26:39.426Z,100479.39
2018-01-25T05:29:07.856Z,100474.34
2018-01-25T05:31:36.208Z,100483.27
2018-01-25T05:34:04.573Z,100485.89
2018-01-25T05:36:32.916Z,100487.00
2018-01-25T05:39:01.699Z,100488.17
2018-01-25T05:41:30.157Z,100488.75
2018-01-25T05:43:58.511Z,100489.80
2018-01-25T05:46:27.000Z,100495.19
2018-01-25T05:48:55.594Z,100498.88
2018-01-25T05:51:23.960Z,100497.98
2018-01-25T05:53:52.320Z,100494.63
2018-01-25T05:56:20.729Z,100499.36
2018-01-25T05:58:49.097Z,100497.19
2018-01-25T06:01:17.447Z,100512.08
2018-01-25T06:03:45.856Z,100510.27
2018-01-25T06:06:14.212Z,100509.02
2018-01-25T06:08:42.622Z,100513.42
2018-01-25T06:11:10.992Z,100520.45
2018-01-25T06:13:39.379Z,100519.47
2018-01-25T06:16:07.853Z,100526.34
2018-01-25T06:18:36.240Z,100534.91
2018-01-25T06:21:04.566Z,100531.08
2018-01-25T06:23:33.406Z,100528.26
2018-01-25T06:26:01.937Z,100530.27
2018-01-25T06:28:30.702Z,100528.34
2018-01-25T06:30:59.163Z,100526.16
2018-01-25T06:33:27.524Z,100533.56
2018-01-25T06:35:55.875Z,100525.27
2018-01-25T06:38:24.239Z,100530.29
2018-01-25T06:40:53.003Z,100530.58
2018-01-25T06:43:21.351Z,100534.18
2018-01-25T06:45:49.715Z,100545.72
2018-01-25T06:48:18.190Z,100546.00
2018-01-25T06:50:46.532Z,100550.92
2018-01-25T06:53:15.318Z,100551.55
2018-01-25T06:55:43.668Z,100544.66
2018-01-25T06:58:12.037Z,100548.61
2018-01-25T07:00:40.397Z,100552.52
2018-01-25T07:03:08.801Z,100566.00
2018-01-25T07:05:37.174Z,100563.73
2018-01-25T07:08:05.530Z,100566.41
2018-01-25T07:10:33.920Z,100570.20
2018-01-25T07:13:02.303Z,100567.48
2018-01-25T07:15:30.694Z,100575.72
2018-01-25T07:17:59.146Z,100580.68
2018-01-25T07:20:27.499Z,100579.20
2018-01-25T07:22:56.341Z,100579.66
2018-01-25T07:25:24.707Z,100586.83
2018-01-25T07:27:53.060Z,100587.48
2018-01-25T07:30:21.493Z,100591.83
2018-01-25T07:32:49.857Z,100597.55
2018-01-25T07:35:18.240Z,100594.85
2018-01-25T07:37:46.597Z,100600.42
2018-01-25T07:40:14.989Z,100603.60
2018-01-25T07:42:43.369Z,100609.20
2018-01-25T07:45:11.737Z,100613.92
2018-01-25T07:47:40.201Z,100619.69
2018-01-25T07:50:08.608Z,100630.78
2018-01-25T07:52:36.968Z,100636.87
2018-01-25T07:55:05.683Z,100644.39
2018-01-25T07:57:39.419Z,100645.57
2018-01-25T08:00:08.572Z,100654.70
2018-01-25T08:02:37.008Z,100652.34
2018-01-25T08:05:05.752Z,100652.19
2018-01-25T08:07:34.127Z,100657.89
2018-01-25T08:10:02.600Z,100654.03
2018-01-25T08:12:31.020Z,100657.30
2018-01-25T08:14:59.462Z,100672.28
2018-01-25T08:17:28.773Z,100670.27
2018-01-25T08:19:57.239Z,100666.58
2018-01-25T08:22:25.600Z,100663.44
2018-01-25T08:24:53.996Z,100658.23
2018-01-25T08:27:22.429Z,100659.14
2018-01-25T08:29:51.180Z,100658.10
2018-01-25T08:32:19.625Z,100654.88
2018-01-25T08:34:48.026Z,100663.58
2018-01-25T08:37:16.395Z,100666.03
2018-01-25T08:39:45.532Z,100673.31
2018-01-25T08:42:13.980Z,100672.67
2018-01-25T08:44:42.352Z,100674.61
2018-01-25T08:47:10.755Z,100684.20
2018-01-25T08:49:39.144Z,100683.09
2018-01-25T08:52:07.496Z,100688.53
2018-01-25T08:54:35.852Z,100693.27
2018-01-25T08:57:04.258Z,100699.00
2018-01-25T08:59:32.672Z,100700.17
2018-01-25T09:02:01.111Z,100694.39
2018-01-25T09:04:29.487Z,100698.55
2018-01-25T09:06:57.840Z,100699.17
2018-01-25T09:09:26.207Z,100702.00
2018-01-25T09:11:54.629Z,100691.98
2018-01-25T09:14:23.028Z,100698.90
2018-01-25T09:16:51.380Z,100698.58
2018-01-25T09:19:19.773Z,100696.55
2018-01-25T09:21:48.148Z,100703.94
2018-01-25T09:24:16.535Z,100708.23
2018-01-25T09:26:44.904Z,100701.80
2018-01-25T09:29:13.286Z,100702.94
2018-01-25T09:31:41.672Z,100717.02
2018-01-25T09:34:10.047Z,100712.06
2018-01-25T09:36:38.448Z,100716.78
2018-01-25T09:39:06.818Z,100718.06
2018-01-25T09:41:35.172Z,100718.26
2018-01-25T09:44:03.551Z,100719.54
2018-01-25T09:46:31.905Z,100719.94
2018-01-25T09:49:00.308Z,100724.41
2018-01-25T09:51:28.725Z,100724.86
2018-01-25T09:53:57.041Z,100727.17
2018-01-25T09:56:25.393Z,100726.08
2018-01-25T09:58:54.156Z,100724.31
2018-01-25T10:01:22.606Z,100732.98
2018-01-25T10:03:51.047Z,100733.23
2018-01-25T10:06:19.444Z,100740.73
2018-01-25T10:08:47.858Z,100748.30
2018-01-25T10:11:16.216Z,100751.53
2018-01-25T10:13:44.568Z,100751.72
2018-01-25T10:16:13.337Z,100750.67
2018-01-25T10:18:42.081Z,100743.10
2018-01-25T10:21:10.468Z,100757.84
2018-01-25T10:23:39.367Z,100760.39
2018-01-25T10:26:07.811Z,100761.81
2018-01-25T10:28:36.190Z,100756.31
2018-01-25T10:31:04.536Z,100750.28
2018-01-25T10:33:33.283Z,100743.14
2018-01-25T10:36:01.660Z,100738.22
2018-01-25T10:38:30.040Z,100746.49
2018-01-25T10:40:58.501Z,100738.81
2018-01-25T10:43:26.855Z,100744.01
2018-01-25T10:45:55.383Z,100743.55
2018-01-25T10:48:23.750Z,100742.66
2018-01-25T10:50:52.107Z,100738.14
2018-01-25T10:53:20.488Z,100740.97
2018-01-25T10:55:48.905Z,100744.59
2018-01-25T10:58:17.279Z,100736.14
2018-01-25T11:00:51.106Z,100740.58
2018-01-25T11:03:19.452Z,100738.69
2018-01-25T11:05:47.945Z,100739.52
2018-01-25T11:08:16.317Z,100740.48
2018-01-25T11:10:44.794Z,100740.03
2018-01-25T11:13:13.144Z,100741.30
2018-01-25T11:15:41.512Z,100739.44
2018-01-25T11:18:10.278Z,100740.86
2018-01-25T11:20:38.648Z,100743.52
2018-01-25T11:23:07.083Z,100743.45
2018-01-25T11:25:35.461Z,100735.92
2018-01-25T11:28:03.972Z,100740.77
2018-01-25T11:30:32.483Z,100737.34
2018-01-25T11:33:00.833Z,100731.02
2018-01-25T11:35:29.270Z,100723.64
2018-01-25T11:37:57.619Z,100722.80
2018-01-25T11:40:26.372Z,100714.59
2018-01-25T11:42:54.754Z,100719.91
2018-01-25T11:45:23.134Z,100712.44
2018-01-25T11:47:51.519Z,100706.75
2018-01-25T11:50:19.877Z,100710.23
2018-01-25T11:52:48.259Z,100712.47
2018-01-25T11:55:16.741Z,100707.52
2018-01-25T11:57:45.232Z,100707.17
2018-01-25T12:00:13.768Z,100703.53
2018-01-25T12:02:42.180Z,100700.12
2018-01-25T12:05:10.527Z,100709.34
2018-01-25T12:07:38.892Z,100704.05
2018-01-25T12:10:07.773Z,100697.44
2018-01-25T12:12:36.628Z,100705.92
2018-01-25T12:15:05.008Z,100711.78
2018-01-25T12:17:33.366Z,100714.86
2018-01-25T12:20:01.764Z,100719.50
2018-01-25T12:22:30.122Z,100722.72
2018-01-25T12:24:58.500Z,100724.00
2018-01-25T12:27:26.870Z,100715.50
2018-01-25T12:29:55.276Z,100717.09
2018-01-25T12:32:23.691Z,100723.31
2018-01-25T12:34:52.024Z,100714.78
2018-01-25T12:37:20.411Z,100717.25
2018-01-25T12:39:48.770Z,100725.45
2018-01-25T12:42:17.164Z,100726.78
2018-01-25T12:44:45.543Z,100728.92
2018-01-25T12:47:14.206Z,100709.40
2018-01-25T12:49:42.551Z,100706.25
2018-01-25T12:52:11.320Z,100700.39
2018-01-25T12:54:39.684Z,100704.98
2018-01-25T12:57:08.056Z,100708.34
2018-01-25T12:59:36.441Z,100700.34
2018-01-25T13:02:04.837Z,100703.61
2018-01-25T13:04:33.195Z,100696.12
2018-01-25T13:07:01.572Z,100695.22
2018-01-25T13:09:29.924Z,100700.12
2018-01-25T13:11:58.290Z,100702.16
2018-01-25T13:14:26.644Z,100696.99
2018-01-25T13:16:55.032Z,100690.84
2018-01-25T13:19:23.781Z,100690.91
2018-01-25T13:21:52.144Z,100691.47
2018-01-25T13:24:20.509Z,100686.04
2018-01-25T13:26:48.855Z,100681.62
2018-01-25T13:29:17.717Z,100678.32
2018-01-25T13:31:46.065Z,100680.59
2018-01-25T13:34:14.428Z,100677.23
2018-01-25T13:36:42.796Z,100681.25
2018-01-25T13:39:11.215Z,100665.08
2018-01-25T13:41:39.724Z,100675.57
2018-01-25T13:44:08.087Z,100672.45
2018-01-25T13:46:36.436Z,100672.78
2018-01-25T13:49:04.797Z,100677.99
2018-01-25T13:51:33.157Z,100683.69
2018-01-25T13:54:01.999Z,100685.31
2018-01-25T13:56:30.457Z,100682.89
2018-01-25T13:58:58.848Z,100675.86
2018-01-25T14:01:27.242Z,100672.78
2018-01-25T14:03:55.618Z,100675.27
2018-01-25T14:06:23.987Z,100682.23
2018-01-25T14:08:52.343Z,100668.95
2018-01-25T14:11:20.693Z,100681.50
2018-01-25T14:13:49.667Z,100685.05
2018-01-25T14:16:17.992Z,100693.41
2018-01-25T14:18:46.393Z,100698.20
2018-01-25T14:21:14.748Z,100697.16
2018-01-25T14:23:43.151Z,100696.38
2018-01-25T14:26:11.507Z,100706.52
2018-01-25T14:28:39.878Z,100706.97
2018-01-25T14:31:08.294Z,100711.59
2018-01-25T14:33:36.723Z,100704.28
2018-01-25T14:36:05.015Z,100709.08
2018-01-25T14:38:33.389Z,100705.52
2018-01-25T14:41:01.745Z,100705.23
2018-01-25T14:43:30.512Z,100707.84
2018-01-25T14:45:58.869Z,100709.19
2018-01-25T14:48:27.252Z,100708.30
2018-01-25T14:50:55.616Z,100707.38
2018-01-25T14:53:23.970Z,100707.81
2018-01-25T14:55:52.390Z,100709.56
2018-01-25T14:58:20.780Z,100706.09
2018-01-25T15:00:49.161Z,100704.98
2018-01-25T15:03:17.671Z,100707.09
2018-01-25T15:05:46.760Z,100701.89
2018-01-25T15:08:14.897Z,100701.36
2018-01-25T15:10:43.249Z,100698.39
2018-01-25T15:13:11.610Z,100693.11
2018-01-25T15:15:39.971Z,100685.41
2018-01-25T15:18:08.316Z,100682.89
2018-01-25T15:20:36.676Z,100673.47
2018-01-25T15:23:05.028Z,100666.52
2018-01-25T15:25:38.860Z,100670.50
2018-01-25T15:28:07.245Z,100676.77
2018-01-25T15:30:35.613Z,100672.91
2018-01-25T15:33:04.019Z,100672.47
2018-01-25T15:35:32.419Z,100678.09
2018-01-25T15:40:28.533Z,100679.95
2018-01-25T15:42:56.920Z,100679.49
2018-01-25T15:45:25.283Z,100683.08
2018-01-25T15:47:53.634Z,100673.02
2018-01-25T15:50:22.053Z,100677.83
2018-01-25T15:52:50.427Z,100681.39
2018-01-25T15:55:18.780Z,100676.08
2018-01-25T15:57:47.192Z,100679.91
2018-01-25T16:00:15.543Z,100677.37
2018-01-25T16:02:43.942Z,100679.68
2018-01-25T16:05:12.322Z,100676.95
2018-01-25T16:07:40.693Z,100683.54
2018-01-25T16:10:09.139Z,100680.07
2018-01-25T16:12:37.489Z,100670.50
2018-01-25T16:15:05.976Z,100674.34
2018-01-25T16:17:34.728Z,100675.64
2018-01-25T16:20:03.101Z,100673.47
2018-01-25T16:22:31.464Z,100674.37
2018-01-25T16:24:59.815Z,100670.77
2018-01-25T16:27:28.620Z,100672.52
2018-01-25T16:29:57.050Z,100674.20
2018-01-25T16:32:25.405Z,100677.39
2018-01-25T16:34:53.758Z,100680.05
2018-01-25T16:37:22.120Z,100673.48
2018-01-25T16:39:50.930Z,100670.84
2018-01-25T16:42:19.284Z,100671.34
2018-01-25T16:44:47.636Z,100671.61
2018-01-25T16:47:16.166Z,100667.73
2018-01-25T16:49:44.577Z,100668.22
2018-01-25T16:52:12.943Z,100665.01
2018-01-25T16:54:41.304Z,100673.78
2018-01-25T16:57:09.714Z,100675.91
2018-01-25T16:59:38.076Z,100684.77
2018-01-25T17:02:06.428Z,100685.42
2018-01-25T17:04:34.816Z,100691.30
2018-01-25T17:07:03.258Z,100690.05
2018-01-25T17:09:31.784Z,100697.45
2018-01-25T17:12:00.189Z,100708.75
2018-01-25T17:14:28.551Z,100706.89
2018-01-25T17:16:56.928Z,100699.48
2018-01-25T17:19:25.279Z,100702.50
2018-01-25T17:21:53.717Z,100700.80
2018-01-25T17:24:22.092Z,100703.42
2018-01-25T17:26:50.444Z,100708.22
2018-01-25T17:29:18.823Z,100710.77
2018-01-25T17:31:47.188Z,100708.55
2018-01-25T17:34:15.568Z,100704.98
2018-01-25T17:36:43.983Z,100707.66
2018-01-25T17:39:12.361Z,100705.88
2018-01-25T17:41:40.742Z,100700.75
2018-01-25T17:44:09.219Z,100704.98
2018-01-25T17:46:37.577Z,100707.53
2018-01-25T17:49:05.948Z,100714.52
2018-01-25T17:51:34.332Z,100713.23
2018-01-25T17:54:02.709Z,100715.38
2018-01-25T17:56:31.064Z,100715.44
2018-01-25T17:58:59.577Z,100715.88
2018-01-25T18:01:27.939Z,100719.39
2018-01-25T18:03:56.299Z,100722.86
2018-01-25T18:06:24.674Z,100728.67
2018-01-25T18:08:53.507Z,100726.86
2018-01-25T18:11:21.887Z,100736.94
2018-01-25T18:13:50.996Z,100725.98
2018-01-25T18:16:19.377Z,100733.55
2018-01-25T18:18:47.762Z,100731.06
2018-01-25T18:21:17.058Z,100732.81
2018-01-25T18:23:45.417Z,100737.58
2018-01-25T18:26:13.797Z,100734.88
2018-01-25T18:28:42.157Z,100735.73
2018-01-25T18:31:10.527Z,100735.30
2018-01-25T18:33:38.903Z,100738.83
2018-01-25T18:36:07.284Z,100734.45
2018-01-25T18:38:35.651Z,100730.45
2018-01-25T18:41:04.501Z,100734.31
2018-01-25T18:43:32.971Z,100731.78
2018-01-25T18:46:01.362Z,100741.00
2018-01-25T18:48:29.828Z,100745.79
2018-01-25T18:50:58.191Z,100742.74
2018-01-25T18:53:26.613Z,100741.01
2018-01-25T18:55:54.991Z,100741.02
2018-01-25T18:58:23.444Z,100748.91
2018-01-25T19:00:51.817Z,100746.70
2018-01-25T19:03:20.190Z,100746.38
2018-01-25T19:05:48.552Z,100748.94
2018-01-25T19:08:16.956Z,100748.04
2018-01-25T19:10:45.312Z,100749.88
2018-01-25T19:13:13.661Z,100745.42
2018-01-25T19:15:42.504Z,100747.25
2018-01-25T19:18:10.871Z,100745.98
2018-01-25T19:20:39.313Z,100744.67
2018-01-25T19:23:08.147Z,100742.89
2018-01-25T19:25:36.531Z,100745.10
2018-01-25T19:28:04.915Z,100745.59
2018-01-25T19:30:33.263Z,100749.97
2018-01-25T19:33:01.636Z,100747.33
2018-01-25T19:35:30.035Z,100743.83
2018-01-25T19:37:58.388Z,100746.48
2018-01-25T19:40:26.762Z,100743.83
2018-01-25T19:42:55.181Z,100740.33
2018-01-25T19:45:23.664Z,100742.91
2018-01-25T19:47:52.016Z,100742.53
2018-01-25T19:50:20.392Z,100742.96
2018-01-25T19:52:48.796Z,100743.77
2018-01-25T19:55:17.176Z,100742.88
2018-01-25T19:57:45.721Z,100741.12
2018-01-25T20:00:14.481Z,100738.50
2018-01-25T20:02:42.927Z,100741.09
2018-01-25T20:05:11.288Z,100733.69
2018-01-25T20:07:39.865Z,100735.87
2018-01-25T20:10:08.323Z,100729.31
2018-01-25T20:12:37.099Z,100735.45
2018-01-25T20:15:05.938Z,100728.87
2018-01-25T20:17:34.304Z,100731.11
2018-01-25T20:20:02.667Z,100725.50
2018-01-25T20:22:31.049Z,100719.28
2018-01-25T20:24:59.511Z,100716.23
2018-01-25T20:27:28.452Z,100723.31
2018-01-25T20:29:57.133Z,100722.34
2018-01-25T20:32:25.707Z,100716.66
2018-01-25T20:34:54.404Z,100714.37
2018-01-25T20:37:23.167Z,100713.45
2018-01-25T20:39:51.812Z,100719.11
2018-01-25T20:42:20.926Z,100717.34
2018-01-25T20:44:49.642Z,100723.98
2018-01-25T20:47:18.533Z,100734.52
2018-01-25T20:49:47.122Z,100732.34
2018-01-25T20:52:15.719Z,100725.36
2018-01-25T20:54:44.490Z,100732.44
2018-01-25T20:57:13.189Z,100728.83
2018-01-25T20:59:41.919Z,100728.94
2018-01-25T21:02:10.443Z,100727.17
2018-01-25T21:04:39.233Z,100727.99
2018-01-25T21:07:07.934Z,100731.13
2018-01-25T21:09:36.508Z,100735.17
2018-01-25T21:12:05.103Z,100731.69
2018-01-25T21:14:33.874Z,100730.23
2018-01-25T21:17:02.474Z,100728.48
2018-01-25T21:19:32.895Z,100723.38
2018-01-25T21:22:01.561Z,100726.48
2018-01-25T21:24:31.157Z,100730.33
2018-01-25T21:26:59.766Z,100726.88
2018-01-25T21:29:28.346Z,100730.36
2018-01-25T21:31:56.984Z,100737.30
2018-01-25T21:34:28.092Z,100736.03
2018-01-25T21:36:56.502Z,100733.95
2018-01-25T21:39:24.970Z,100737.45
2018-01-25T21:41:53.420Z,100733.84
2018-01-25T21:44:21.840Z,100734.31
2018-01-25T21:46:50.233Z,100734.84
2018-01-25T21:49:19.127Z,100732.20
2018-01-25T21:51:47.920Z,100730.52
2018-01-25T21:54:16.729Z,100732.31
2018-01-25T21:56:45.144Z,100736.25
2018-01-25T21:59:13.504Z,100731.85
2018-01-25T22:01:41.980Z,100743.17
2018-01-25T22:04:10.397Z,100740.08
2018-01-25T22:06:39.206Z,100739.66
2018-01-25T22:09:07.585Z,100744.91
2018-01-25T22:11:35.989Z,100742.35
2018-01-25T22:14:04.558Z,100749.75
2018-01-25T22:16:33.139Z,100744.48
2018-01-25T22:19:01.759Z,100741.92
2018-01-25T22:21:30.367Z,100743.31
2018-01-25T22:23:59.047Z,100742.36
2018-01-25T22:26:27.913Z,100734.98
2018-01-25T22:28:56.508Z,100737.19
2018-01-25T22:31:25.213Z,100736.83
2018-01-25T22:33:55.161Z,100726.23
2018-01-25T22:36:23.800Z,100730.11
2018-01-25T22:38:52.579Z,100731.00
2018-01-25T22:41:21.162Z,100740.27
2018-01-25T22:43:49.754Z,100742.44
2018-01-25T22:46:18.337Z,100740.76
2018-01-25T22:48:48.035Z,100745.52
2018-01-25T22:51:16.805Z,100748.13
2018-01-25T22:53:45.426Z,100756.97
2018-01-25T22:56:13.994Z,100749.08
2018-01-25T22:58:42.692Z,100755.14
2018-01-25T23:01:11.676Z,100750.78
2018-01-25T23:03:41.763Z,100751.27
2018-01-25T23:06:10.604Z,100752.25
2018-01-25T23:08:39.933Z,100755.66
2018-01-25T23:11:09.329Z,100750.39
2018-01-25T23:13:38.679Z,100754.40
2018-01-25T23:16:07.460Z,100753.52
2018-01-25T23:18:36.105Z,100748.64
2018-01-25T23:21:05.393Z,100738.95
2018-01-25T23:23:34.897Z,100742.08
2018-01-25T23:26:04.188Z,100743.83
2018-01-25T23:28:33.477Z,100739.45
2018-01-25T23:31:02.837Z,100744.27
2018-01-25T23:33:32.534Z,100740.75
2018-01-25T23:36:02.137Z,100749.14
2018-01-25T23:38:37.847Z,100742.95
2018-01-25T23:41:06.523Z,100740.25
2018-01-25T23:43:35.104Z,100738.00
2018-01-25T23:46:05.206Z,100735.34
2018-01-25T23:48:35.374Z,100738.95
2018-01-25T23:51:04.150Z,100737.17
2018-01-25T23:53:32.836Z,100730.95
2018-01-25T23:56:02.688Z,100733.16
2018-01-25T23:58:32.284Z,100738.40
